"WATCHING THE WEATHER TO PROTECT LIFE AND PROPERTY"


THERE ARE CURRENTLY NO WATCHES NOR WARNINGS


Aviation
Satellite (InfraRed)


TNCA 251900Z 08015KT 9999 FEW021 31/26 Q1011 NOSIG
TNCB 251855Z 09012KT 050V140 9999 SCT019 BKN023 BKN028 32/25 Q1012
TNCC 251900Z 09011KT 9999 FEW023 32/25 Q1012 NOSIG
TNCM 251900Z 06008KT 9999 SCT015TCU 32/23 Q1016 RETS NOSIG RMK SHRA W